createdAt,value
2023-05-02T00:02:14.777Z,11.9
2023-05-02T00:04:16.599Z,12
2023-05-02T00:06:18.228Z,12
2023-05-02T00:08:19.980Z,11.9
2023-05-02T00:10:24.986Z,11.8
2023-05-02T00:18:32.104Z,11.9
2023-05-02T00:20:33.884Z,11.9
2023-05-02T00:22:35.697Z,11.9
2023-05-02T00:26:42.463Z,11.9
2023-05-02T00:28:45.807Z,11.9
2023-05-02T00:31:14.426Z,11.9
2023-05-02T00:43:28.322Z,11.9
2023-05-02T00:45:30.064Z,11.8
2023-05-02T00:49:33.638Z,11.9
2023-05-02T00:51:38.625Z,11.9
2023-05-02T00:53:40.416Z,11.9
2023-05-02T00:55:42.190Z,11.9
2023-05-02T00:57:43.969Z,11.9
2023-05-02T00:59:45.758Z,11.8
2023-05-02T01:01:47.609Z,11.8
2023-05-02T01:03:49.412Z,11.9
2023-05-02T01:05:54.333Z,11.7
2023-05-02T01:07:56.107Z,11.8
2023-05-02T01:09:58.169Z,11.8
2023-05-02T01:11:59.656Z,11.8
2023-05-02T01:14:01.425Z,11.8
2023-05-02T01:16:03.329Z,11.8
2023-05-02T01:18:05.025Z,11.7
2023-05-02T01:20:09.991Z,11.8
2023-05-02T01:22:11.785Z,11.8
2023-05-02T01:24:13.539Z,11.5
2023-05-02T01:35:28.149Z,11.2
2023-05-02T01:37:29.944Z,11.2
2023-05-02T01:41:33.464Z,11.2
2023-05-02T01:43:35.240Z,11.2
2023-05-02T01:45:36.996Z,11.2
2023-05-02T01:47:42.044Z,11.1
2023-05-02T01:49:43.798Z,11
2023-05-02T01:53:47.351Z,11.1
2023-05-02T01:55:49.126Z,11.1
2023-05-02T01:59:52.652Z,11
2023-05-02T02:10:04.724Z,11
2023-05-02T02:18:15.120Z,10.9
2023-05-02T02:20:16.793Z,10.8
2023-05-02T02:21:19.288Z,10.9
2023-05-02T02:25:22.816Z,11
2023-05-02T02:27:24.609Z,10.9
2023-05-02T02:29:29.581Z,11
2023-05-02T02:31:31.382Z,11.1
2023-05-02T02:33:33.113Z,11
2023-05-02T02:35:34.878Z,10.9
2023-05-02T02:37:36.623Z,11
2023-05-02T02:39:38.365Z,10.9
2023-05-02T02:43:45.170Z,10.9
2023-05-02T02:47:48.788Z,10.9
2023-05-02T02:49:50.417Z,11
2023-05-02T02:51:52.178Z,10.8
2023-05-02T02:53:53.936Z,10.9
2023-05-02T02:55:55.685Z,11
2023-05-02T02:58:00.692Z,11
2023-05-02T03:00:02.753Z,11
2023-05-02T03:02:04.204Z,11
2023-05-02T03:06:07.727Z,11
2023-05-02T03:17:23.842Z,10.8
2023-05-02T03:19:24.062Z,10.9
2023-05-02T03:21:25.791Z,10.9
2023-05-02T03:25:32.560Z,11
2023-05-02T03:35:41.369Z,10.7
2023-05-02T03:37:43.118Z,10.8
2023-05-02T03:39:48.091Z,10.8
2023-05-02T03:41:49.845Z,10.8
2023-05-02T03:43:51.601Z,10.8
2023-05-02T03:45:53.355Z,10.9
2023-05-02T03:47:55.374Z,10.8
2023-05-02T03:49:56.978Z,10.9
2023-05-02T03:51:58.676Z,10.8
2023-05-02T03:54:03.642Z,10.8
2023-05-02T03:56:05.385Z,10.9
2023-05-02T04:00:08.925Z,10.8
2023-05-02T04:02:10.670Z,10.6
2023-05-02T04:04:12.471Z,10.5
2023-05-02T04:06:14.261Z,10.5
2023-05-02T04:08:19.208Z,10.6
2023-05-02T04:10:20.960Z,10.6
2023-05-02T04:12:22.719Z,10.4
2023-05-02T04:14:51.368Z,10.5
2023-05-02T04:18:54.864Z,10.4
2023-05-02T04:23:01.616Z,10.5
2023-05-02T04:25:03.370Z,10.5
2023-05-02T04:31:08.671Z,10.4
2023-05-02T04:33:10.408Z,10.4
2023-05-02T04:35:15.433Z,10.2
2023-05-02T04:37:17.083Z,10.4
2023-05-02T04:41:20.589Z,10.2
2023-05-02T04:45:24.067Z,10.3
2023-05-02T04:47:25.874Z,10.3
2023-05-02T04:49:30.818Z,10.4
2023-05-02T05:05:48.095Z,10.1
2023-05-02T05:08:52.253Z,9.9
2023-05-02T05:10:53.972Z,9.9
2023-05-02T05:12:55.747Z,10
2023-05-02T05:14:57.485Z,9.9
2023-05-02T05:17:02.462Z,9.8
2023-05-02T05:21:05.951Z,9.9
2023-05-02T05:23:07.709Z,9.8
2023-05-02T05:31:17.936Z,9.9
2023-05-02T05:33:19.710Z,9.8
2023-05-02T05:35:21.387Z,9.8
2023-05-02T05:43:28.341Z,9.8
2023-05-02T05:47:35.155Z,9.9
2023-05-02T05:49:38.439Z,9.9
2023-05-02T05:51:38.508Z,10
2023-05-02T05:57:43.730Z,10.1
2023-05-02T05:59:48.695Z,10.1
2023-05-02T06:04:54.794Z,9.9
2023-05-02T06:08:58.127Z,10
2023-05-02T06:10:59.877Z,9.9
2023-05-02T06:13:04.833Z,9.8
2023-05-02T06:15:06.611Z,9.8
2023-05-02T06:17:08.346Z,10.1
2023-05-02T06:23:15.050Z,10
2023-05-02T06:27:21.637Z,10.4
2023-05-02T06:33:26.856Z,10.3
2023-05-02T06:35:28.617Z,10.4
2023-05-02T06:37:30.363Z,10.4
2023-05-02T06:39:32.092Z,10.3
2023-05-02T06:43:38.834Z,10.5
2023-05-02T06:45:40.574Z,10.6
2023-05-02T06:47:42.319Z,10.4
2023-05-02T06:49:44.065Z,10.6
2023-05-02T06:51:45.811Z,10.6
2023-05-02T06:53:47.562Z,10.7
2023-05-02T06:55:52.574Z,10.7
2023-05-02T06:57:54.309Z,10.6
2023-05-02T06:59:56.049Z,10.6
2023-05-02T07:00:58.665Z,10.7
2023-05-02T07:03:00.501Z,10.6
2023-05-02T07:07:03.818Z,10.2
2023-05-02T07:09:08.792Z,9.8
2023-05-02T07:11:10.555Z,9.7
2023-05-02T07:13:12.277Z,9.9
2023-05-02T07:15:14.044Z,9.8
2023-05-02T07:17:15.874Z,10
2023-05-02T07:19:17.529Z,9.9
2023-05-02T07:21:19.283Z,10
2023-05-02T07:23:24.272Z,10.1
2023-05-02T07:25:26.011Z,10
2023-05-02T07:27:27.795Z,10
2023-05-02T07:29:29.506Z,10.3
2023-05-02T07:31:31.292Z,10.5
2023-05-02T07:33:32.992Z,10.5
2023-05-02T07:35:34.739Z,10.6
2023-05-02T07:37:39.745Z,11.1
2023-05-02T07:39:41.515Z,11.2
2023-05-02T07:41:43.283Z,11.2
2023-05-02T07:43:45.046Z,11.3
2023-05-02T07:45:46.804Z,11.3
2023-05-02T07:47:48.704Z,11.7
2023-05-02T07:49:50.300Z,12.3
2023-05-02T07:51:55.286Z,12.2
2023-05-02T07:53:57.090Z,12.3
2023-05-02T07:55:58.822Z,12.2
2023-05-02T07:58:27.460Z,12.4
2023-05-02T08:00:29.226Z,12.2
2023-05-02T08:02:31.071Z,12.1
2023-05-02T08:04:36.161Z,12.5
2023-05-02T08:06:38.008Z,12.4
2023-05-02T08:08:39.580Z,12.9
2023-05-02T08:12:43.124Z,12.6
2023-05-02T08:14:44.914Z,12.6
2023-05-02T08:16:46.953Z,12.5
2023-05-02T08:20:53.501Z,12.3
2023-05-02T08:22:55.896Z,12.2
2023-05-02T08:26:58.858Z,11.8
2023-05-02T08:31:02.445Z,11.3
2023-05-02T08:33:07.533Z,11.1
2023-05-02T08:41:14.600Z,12.3
2023-05-02T08:45:18.169Z,12.6
2023-05-02T08:47:23.321Z,12.7
2023-05-02T08:49:24.994Z,12.7
2023-05-02T08:51:26.757Z,13
2023-05-02T08:52:30.135Z,13
2023-05-02T08:54:31.911Z,12.6
2023-05-02T08:56:33.699Z,13.3
2023-05-02T08:58:35.533Z,13.8
2023-05-02T09:00:40.515Z,14.6
2023-05-02T09:02:42.335Z,14.5
2023-05-02T09:04:44.260Z,14.5
2023-05-02T09:06:46.095Z,13.7
2023-05-02T09:08:47.730Z,13.1
2023-05-02T09:10:49.509Z,14.2
2023-05-02T09:12:51.319Z,14.7
2023-05-02T09:14:56.365Z,14
2023-05-02T09:16:58.401Z,14
2023-05-02T09:19:00.009Z,14
2023-05-02T09:21:01.876Z,13.5
2023-05-02T09:23:03.619Z,13.8
2023-05-02T09:25:05.435Z,14.6
2023-05-02T09:27:07.246Z,14.7
2023-05-02T09:33:17.477Z,13.3
2023-05-02T09:47:31.856Z,14.9
2023-05-02T09:48:34.355Z,14.8
2023-05-02T09:52:37.990Z,14.1
2023-05-02T09:54:39.811Z,14.1
2023-05-02T09:56:44.871Z,14.1
2023-05-02T10:00:48.533Z,14.5
2023-05-02T10:02:50.337Z,14.6
2023-05-02T10:04:52.110Z,14.9
2023-05-02T10:06:53.948Z,14.7
2023-05-02T10:15:04.457Z,15
2023-05-02T10:19:08.072Z,15.7
2023-05-02T10:21:09.887Z,14.7
2023-05-02T10:23:11.708Z,14.8
2023-05-02T10:25:16.795Z,15.4
2023-05-02T10:27:18.588Z,14.7
2023-05-02T10:31:22.250Z,16.4
2023-05-02T10:35:25.861Z,15.5
2023-05-02T10:37:27.592Z,15.2
2023-05-02T10:41:34.350Z,15.3
2023-05-02T10:43:36.186Z,14.2
2023-05-02T10:44:38.756Z,14
2023-05-02T10:48:42.360Z,15.5
2023-05-02T10:52:49.222Z,15.5
2023-05-02T10:58:54.557Z,13.8
2023-05-02T11:00:56.374Z,14.5
2023-05-02T11:02:58.342Z,15.5
2023-05-02T11:05:00.309Z,16.4
2023-05-02T11:09:06.879Z,16.2
2023-05-02T11:11:08.696Z,16.8
2023-05-02T11:13:10.447Z,17
2023-05-02T11:15:12.241Z,17.5
2023-05-02T11:17:14.052Z,18
2023-05-02T11:19:15.836Z,17.8
2023-05-02T11:21:20.814Z,17
2023-05-02T11:23:22.527Z,16.4
2023-05-02T11:25:24.218Z,15.2
2023-05-02T11:27:25.936Z,15.4
2023-05-02T11:29:27.645Z,15.4
2023-05-02T11:31:29.507Z,15.8
2023-05-02T11:33:31.283Z,16.3
2023-05-02T11:35:36.334Z,17.4
2023-05-02T11:37:38.152Z,17.2
2023-05-02T11:39:39.963Z,17.5
2023-05-02T11:42:08.454Z,17.7
2023-05-02T11:44:10.156Z,18.3
2023-05-02T11:46:11.882Z,18.9
2023-05-02T11:48:16.773Z,18.1
2023-05-02T11:50:18.443Z,17.8
2023-05-02T11:52:20.276Z,17.6
2023-05-02T11:56:23.553Z,18.1
2023-05-02T11:58:25.260Z,19.2
2023-05-02T12:00:26.951Z,19.2
2023-05-02T12:02:31.888Z,19.2
2023-05-02T12:04:33.545Z,19
2023-05-02T12:06:35.275Z,18
2023-05-02T12:08:36.973Z,17.3
2023-05-02T12:10:40.314Z,17.7
2023-05-02T12:12:42.008Z,18
2023-05-02T12:14:43.783Z,17.2
2023-05-02T12:16:48.863Z,16.7
2023-05-02T12:18:50.593Z,17.9
2023-05-02T12:20:52.409Z,17.1
2023-05-02T12:22:54.213Z,15.9
2023-05-02T12:24:56.027Z,16.4
2023-05-02T12:28:59.693Z,16.9
2023-05-02T12:31:04.761Z,18.4
2023-05-02T12:33:06.617Z,17.6
2023-05-02T12:36:10.889Z,15.7
2023-05-02T12:38:12.697Z,16.8
2023-05-02T12:40:14.486Z,16.1
2023-05-02T12:42:16.266Z,15.5
2023-05-02T12:44:21.279Z,15.6
2023-05-02T12:46:23.127Z,15.6
2023-05-02T12:48:24.927Z,15.6
2023-05-02T12:50:26.733Z,15.6
2023-05-02T12:52:28.533Z,15.4
2023-05-02T12:54:30.363Z,15.2
2023-05-02T12:56:32.276Z,15.7
2023-05-02T12:58:37.232Z,15.6
2023-05-02T13:00:39.046Z,16
2023-05-02T13:02:40.888Z,16.2
2023-05-02T13:04:42.646Z,16.5
2023-05-02T13:06:45.776Z,16.4
2023-05-02T13:08:46.283Z,16.5
2023-05-02T13:10:48.091Z,16.4
2023-05-02T13:12:53.158Z,15.8
2023-05-02T13:14:54.992Z,15.8
2023-05-02T13:16:56.874Z,15.3
2023-05-02T13:18:58.671Z,15.6
2023-05-02T13:21:00.380Z,15.8
2023-05-02T13:23:02.257Z,15.7
2023-05-02T13:25:04.138Z,15.7
2023-05-02T13:27:09.050Z,15.8
2023-05-02T13:31:12.732Z,16.3
2023-05-02T13:32:15.218Z,16.1
2023-05-02T13:34:17.024Z,16.4
2023-05-02T13:36:18.823Z,16.3
2023-05-02T13:40:25.833Z,15.8
2023-05-02T13:42:27.541Z,15.8
2023-05-02T13:44:29.372Z,15.6
2023-05-02T13:46:31.202Z,15.2
2023-05-02T13:48:32.971Z,15.4
2023-05-02T13:50:34.808Z,15.5
2023-05-02T13:52:36.602Z,15.3
2023-05-02T13:54:41.669Z,15.4
2023-05-02T14:00:47.086Z,15.1
2023-05-02T14:02:49.046Z,15.5
2023-05-02T14:04:50.739Z,15.8
2023-05-02T14:06:52.544Z,16
2023-05-02T14:08:57.613Z,15.6
2023-05-02T14:10:59.436Z,15.9
2023-05-02T14:23:13.537Z,15
2023-05-02T14:27:17.162Z,15.5
2023-05-02T14:28:19.702Z,15.6
2023-05-02T14:30:21.504Z,15.6
2023-05-02T14:32:23.330Z,15.7
2023-05-02T14:36:30.244Z,15.5
2023-05-02T14:38:32.006Z,15.1
2023-05-02T14:40:33.802Z,14.8
2023-05-02T14:42:35.629Z,15
2023-05-02T14:54:49.705Z,16.2
2023-05-02T14:56:51.533Z,15.1
2023-05-02T14:58:53.313Z,14.5
2023-05-02T15:00:55.194Z,14.7
2023-05-02T15:02:57.008Z,15.3
2023-05-02T15:05:02.006Z,16
2023-05-02T15:07:03.922Z,15.9
2023-05-02T15:19:17.928Z,15.5
2023-05-02T15:25:50.173Z,15.5
2023-05-02T15:27:52.000Z,15.6
2023-05-02T15:31:58.902Z,15.2
2023-05-02T15:34:00.672Z,15.2
2023-05-02T15:36:02.472Z,14.6
2023-05-02T15:38:04.269Z,14.8
2023-05-02T15:40:06.480Z,15.2
2023-05-02T15:44:09.683Z,15.2
2023-05-02T15:46:14.802Z,14.7
2023-05-02T15:48:16.565Z,14.4
2023-05-02T15:50:18.370Z,14.5
2023-05-02T15:52:20.187Z,14.3
2023-05-02T16:04:34.369Z,13.6
2023-05-02T16:18:50.128Z,14.1
2023-05-02T16:19:52.610Z,13.8
2023-05-02T16:21:54.435Z,13.5
2023-05-02T16:23:56.244Z,13.3
2023-05-02T16:25:58.047Z,13.9
2023-05-02T16:30:05.270Z,14
2023-05-02T16:32:06.727Z,13.9
2023-05-02T16:34:08.516Z,14
2023-05-02T16:36:10.309Z,14.2
2023-05-02T17:00:38.496Z,14
2023-05-02T17:02:40.339Z,13.4
2023-05-02T17:12:52.532Z,12.9
2023-05-02T17:17:58.689Z,12.6
2023-05-02T17:20:00.846Z,12.5
2023-05-02T17:26:09.062Z,12.6
2023-05-02T17:28:10.865Z,12.5
2023-05-02T17:30:12.667Z,12.4
2023-05-02T17:38:23.041Z,12.5
2023-05-02T17:40:24.836Z,12.5
2023-05-02T17:42:26.638Z,12.6
2023-05-02T17:44:28.393Z,12.7
2023-05-02T17:46:30.228Z,12.8
2023-05-02T17:48:31.964Z,12.7
2023-05-02T17:50:33.760Z,12.2
2023-05-02T17:52:38.776Z,12.1
2023-05-02T17:54:40.565Z,12.2
2023-05-02T17:56:42.360Z,12.1
2023-05-02T17:58:44.155Z,12.2
2023-05-02T18:00:45.904Z,12.1
2023-05-02T18:02:49.445Z,12.2
2023-05-02T18:06:56.050Z,11.8
2023-05-02T18:12:02.086Z,12
2023-05-02T18:14:03.853Z,12
2023-05-02T18:16:05.746Z,12.1
2023-05-02T18:18:07.490Z,11.8
2023-05-02T18:20:12.440Z,11.7
2023-05-02T18:22:14.238Z,11.7
2023-05-02T18:24:16.096Z,11.8
2023-05-02T18:26:17.773Z,11.7
2023-05-02T18:28:19.569Z,11.9
2023-05-02T18:30:21.309Z,11.9
2023-05-02T18:32:23.093Z,12
2023-05-02T18:34:28.109Z,11.7
2023-05-02T18:36:29.856Z,11.6
2023-05-02T18:38:31.636Z,11.6
2023-05-02T18:40:33.398Z,11.5
2023-05-02T18:44:36.916Z,11.6
2023-05-02T18:48:43.986Z,11.5
2023-05-02T18:52:47.520Z,11.6
2023-05-02T18:54:49.258Z,11.5
2023-05-02T18:56:51.030Z,11.5
2023-05-02T18:58:52.797Z,11.5
2023-05-02T19:00:54.573Z,11.4
2023-05-02T19:02:59.690Z,11.2
2023-05-02T19:05:01.489Z,11.1
2023-05-02T19:07:03.122Z,11
2023-05-02T19:09:31.727Z,11
2023-05-02T19:11:33.490Z,11.1
2023-05-02T19:13:35.283Z,11.1
2023-05-02T19:15:40.302Z,11.1
2023-05-02T19:17:42.084Z,11
2023-05-02T19:19:43.781Z,11
2023-05-02T19:38:02.844Z,10.5
2023-05-02T19:40:04.578Z,10.5
2023-05-02T19:46:13.125Z,10.6
2023-05-02T19:48:14.935Z,10.6
2023-05-02T19:50:16.584Z,10.3
2023-05-02T19:54:20.131Z,10.5
2023-05-02T19:58:26.865Z,10.4
2023-05-02T20:03:33.002Z,10.4
2023-05-02T20:05:34.626Z,10.3
2023-05-02T20:07:36.398Z,10.2
2023-05-02T20:09:38.141Z,10.2
2023-05-02T20:17:48.424Z,10
2023-05-02T20:21:51.890Z,9.9
2023-05-02T20:25:58.611Z,9.8
2023-05-02T20:32:03.934Z,9.8
2023-05-02T20:40:14.152Z,9.6
2023-05-02T20:48:21.124Z,9.5
2023-05-02T20:50:22.853Z,9.6
2023-05-02T20:52:24.593Z,9.5
2023-05-02T20:54:29.588Z,9.4
2023-05-02T20:56:31.288Z,9.5
2023-05-02T20:58:33.034Z,9.5
2023-05-02T20:59:35.540Z,9.3
2023-05-02T21:01:37.249Z,9.3
2023-05-02T21:03:39.033Z,9.3
2023-05-02T21:05:40.723Z,9.2
2023-05-02T21:07:45.680Z,9.2
2023-05-02T21:13:50.863Z,9.1
2023-05-02T21:15:52.670Z,9.1
2023-05-02T21:17:54.369Z,8.9
2023-05-02T21:19:56.057Z,9.1
2023-05-02T21:22:01.010Z,9
2023-05-02T21:24:02.736Z,9
2023-05-02T21:26:04.461Z,8.9
2023-05-02T21:28:06.278Z,8.9
2023-05-02T21:30:07.890Z,8.9
2023-05-02T21:32:09.740Z,8.8
2023-05-02T21:34:11.338Z,8.8
2023-05-02T21:36:16.297Z,8.7
2023-05-02T21:40:19.731Z,8.8
2023-05-02T21:44:23.142Z,8.7
2023-05-02T21:46:24.869Z,8.7
2023-05-02T21:48:26.573Z,8.6
2023-05-02T21:50:31.520Z,8.6
2023-05-02T21:52:33.214Z,8.6
2023-05-02T21:54:34.933Z,8.5
2023-05-02T21:55:37.399Z,8.5
2023-05-02T21:57:39.094Z,8.5
2023-05-02T21:59:40.810Z,8.5
2023-05-02T22:01:42.516Z,8.5
2023-05-02T22:03:47.428Z,8.4
2023-05-02T22:05:49.148Z,8.4
2023-05-02T22:07:50.848Z,8.4
2023-05-02T22:09:52.565Z,8.3
2023-05-02T22:13:55.937Z,8.2
2023-05-02T22:15:57.644Z,8.2
2023-05-02T22:18:02.660Z,8.2
2023-05-02T22:24:07.729Z,8.1
2023-05-02T22:26:09.429Z,8.1
2023-05-02T22:28:11.175Z,8
2023-05-02T22:30:12.852Z,8
2023-05-02T22:32:17.788Z,7.8
2023-05-02T22:53:04.879Z,7.7
2023-05-02T22:55:06.564Z,7.6
2023-05-02T23:07:19.947Z,7.5
2023-05-02T23:09:21.620Z,7.5
2023-05-02T23:11:23.297Z,7.5
2023-05-02T23:27:43.236Z,7.4
2023-05-02T23:29:44.895Z,7.3
2023-05-02T23:31:46.600Z,7.3
2023-05-02T23:33:48.255Z,7.2
2023-05-02T23:35:50.768Z,7.2
2023-05-02T23:37:52.459Z,7.3
2023-05-02T23:39:54.122Z,7.2
2023-05-02T23:41:59.054Z,7.1
2023-05-02T23:46:02.389Z,7.2
2023-05-02T23:47:04.921Z,7.1
2023-05-02T23:51:08.152Z,7.1
2023-05-02T23:55:16.252Z,7
